Patterson, North Carolina
Current Conditions -  °F | °C
As of 10:15 PM on Monday 26 Jan 2015 (Local Time) from KMRN Reporting Station
Clear Clear  
Wind Chill: 26°   Ceiling: Unl
Heat Index: 35°   Visibility: 10mi
Dew Point: 23°   Wind: 12mph
Humidity: 64%   Direction: 280°W
Pressure: 29.82"   Gusts: 17mph
Location:  36°N, 81.56°W
Report Text: KMRN 270315Z AUTO 28010G15KT 10SM CLR 01/M05 A2982 RMK AO2 T00141048
Loading
Personal Weather Stations






























Interactive Weather Map New forecast layout! Learn more

10-Day Weather Forecast

Advertisements
Track Severe Weather on mobile